sensor_id;sensor_type;location;lat;lon;timestamp;pressure;altitude;pressure_sealevel;temperature;humidity
29461;BME280;16428;47.836;35.106;2023-03-21T00:00:59;101355.63;;;3.45;100.00
29461;BME280;16428;47.836;35.106;2023-03-21T00:03:29;101365.50;;;3.43;100.00
29461;BME280;16428;47.836;35.106;2023-03-21T00:05:57;101356.53;;;3.33;100.00
29461;BME280;16428;47.836;35.106;2023-03-21T00:08:25;101356.84;;;3.52;100.00
29461;BME280;16428;47.836;35.106;2023-03-21T00:11:01;101364.50;;;3.33;100.00
29461;BME280;16428;47.836;35.106;2023-03-21T00:13:29;101370.56;;;3.35;100.00
29461;BME280;16428;47.836;35.106;2023-03-21T00:16:06;101365.75;;;3.16;100.00
29461;BME280;16428;47.836;35.106;2023-03-21T00:19:01;101375.59;;;3.03;100.00
29461;BME280;16428;47.836;35.106;2023-03-21T00:21:32;101374.06;;;3.12;100.00
29461;BME280;16428;47.836;35.106;2023-03-21T00:24:24;101360.59;;;3.26;100.00
29461;BME280;16428;47.836;35.106;2023-03-21T00:26:52;101358.53;;;3.18;100.00
29461;BME280;16428;47.836;35.106;2023-03-21T00:29:20;101363.66;;;3.09;100.00
29461;BME280;16428;47.836;35.106;2023-03-21T00:31:48;101356.66;;;3.08;100.00
29461;BME280;16428;47.836;35.106;2023-03-21T00:34:16;101359.78;;;3.02;100.00
29461;BME280;16428;47.836;35.106;2023-03-21T00:36:57;101364.56;;;2.97;100.00
29461;BME280;16428;47.836;35.106;2023-03-21T00:39:25;101365.81;;;3.04;100.00
29461;BME280;16428;47.836;35.106;2023-03-21T00:41:52;101361.75;;;3.11;100.00
29461;BME280;16428;47.836;35.106;2023-03-21T00:44:20;101358.72;;;3.04;100.00
29461;BME280;16428;47.836;35.106;2023-03-21T00:46:50;101358.41;;;2.96;100.00
29461;BME280;16428;47.836;35.106;2023-03-21T00:49:32;101354.72;;;3.10;100.00
29461;BME280;16428;47.836;35.106;2023-03-21T00:52:01;101351.63;;;2.92;100.00
29461;BME280;16428;47.836;35.106;2023-03-21T00:54:44;101358.41;;;2.96;100.00
29461;BME280;16428;47.836;35.106;2023-03-21T00:57:12;101348.25;;;2.90;100.00
29461;BME280;16428;47.836;35.106;2023-03-21T00:59:40;101345.81;;;3.11;100.00
29461;BME280;16428;47.836;35.106;2023-03-21T01:02:07;101354.84;;;2.85;100.00
29461;BME280;16428;47.836;35.106;2023-03-21T01:04:35;101344.03;;;2.88;100.00
29461;BME280;16428;47.836;35.106;2023-03-21T01:07:03;101347.53;;;2.75;100.00
29461;BME280;16428;47.836;35.106;2023-03-21T01:09:30;101344.06;;;2.75;100.00
29461;BME280;16428;47.836;35.106;2023-03-21T01:11:59;101351.88;;;2.76;100.00
29461;BME280;16428;47.836;35.106;2023-03-21T01:14:26;101342.69;;;2.69;100.00
29461;BME280;16428;47.836;35.106;2023-03-21T01:16:54;101341.53;;;2.73;100.00
29461;BME280;16428;47.836;35.106;2023-03-21T01:19:23;101335.47;;;2.71;100.00
29461;BME280;16428;47.836;35.106;2023-03-21T01:22:14;101346.59;;;2.76;100.00
29461;BME280;16428;47.836;35.106;2023-03-21T01:24:42;101346.09;;;2.71;100.00
29461;BME280;16428;47.836;35.106;2023-03-21T01:27:21;101353.31;;;2.69;100.00
29461;BME280;16428;47.836;35.106;2023-03-21T01:29:49;101355.91;;;2.45;100.00
29461;BME280;16428;47.836;35.106;2023-03-21T01:32:16;101356.84;;;2.44;100.00
29461;BME280;16428;47.836;35.106;2023-03-21T01:34:44;101349.25;;;2.40;100.00
29461;BME280;16428;47.836;35.106;2023-03-21T01:37:18;101350.00;;;2.42;100.00
29461;BME280;16428;47.836;35.106;2023-03-21T01:39:46;101343.28;;;2.49;100.00
29461;BME280;16428;47.836;35.106;2023-03-21T01:42:13;101349.91;;;2.67;100.00
29461;BME280;16428;47.836;35.106;2023-03-21T01:45:04;101351.31;;;2.60;100.00
29461;BME280;16428;47.836;35.106;2023-03-21T01:47:32;101343.06;;;2.52;100.00
29461;BME280;16428;47.836;35.106;2023-03-21T01:50:01;101342.31;;;2.50;100.00
29461;BME280;16428;47.836;35.106;2023-03-21T01:52:33;101339.66;;;2.50;100.00
29461;BME280;16428;47.836;35.106;2023-03-21T01:55:08;101333.25;;;2.65;100.00
29461;BME280;16428;47.836;35.106;2023-03-21T01:57:52;101345.78;;;2.63;100.00
29461;BME280;16428;47.836;35.106;2023-03-21T02:00:33;101340.69;;;2.60;100.00
29461;BME280;16428;47.836;35.106;2023-03-21T02:03:06;101336.69;;;2.55;100.00
29461;BME280;16428;47.836;35.106;2023-03-21T02:05:58;101336.22;;;2.24;100.00
29461;BME280;16428;47.836;35.106;2023-03-21T02:08:31;101336.94;;;2.39;100.00
29461;BME280;16428;47.836;35.106;2023-03-21T02:11:07;101331.19;;;2.58;100.00
29461;BME280;16428;47.836;35.106;2023-03-21T02:13:36;101336.69;;;2.55;100.00
29461;BME280;16428;47.836;35.106;2023-03-21T02:16:25;101330.97;;;2.48;100.00
29461;BME280;16428;47.836;35.106;2023-03-21T02:19:09;101326.72;;;2.58;100.00
29461;BME280;16428;47.836;35.106;2023-03-21T02:28:10;101336.47;;;2.45;100.00
29461;BME280;16428;47.836;35.106;2023-03-21T02:36:27;101339.88;;;2.47;100.00
29461;BME280;16428;47.836;35.106;2023-03-21T02:44:20;101332.06;;;2.33;100.00
29461;BME280;16428;47.836;35.106;2023-03-21T02:49:55;101345.44;;;2.44;100.00
29461;BME280;16428;47.836;35.106;2023-03-21T02:52:27;101339.13;;;2.45;100.00
29461;BME280;16428;47.836;35.106;2023-03-21T02:55:12;101339.38;;;2.42;100.00
29461;BME280;16428;47.836;35.106;2023-03-21T02:57:42;101343.06;;;2.52;100.00
29461;BME280;16428;47.836;35.106;2023-03-21T03:00:16;101347.19;;;2.56;100.00
29461;BME280;16428;47.836;35.106;2023-03-21T03:02:45;101348.91;;;2.57;100.00
29461;BME280;16428;47.836;35.106;2023-03-21T03:05:25;101353.25;;;2.58;100.00
29461;BME280;16428;47.836;35.106;2023-03-21T03:11:11;101339.88;;;2.47;100.00
29461;BME280;16428;47.836;35.106;2023-03-21T03:19:35;101344.53;;;2.56;100.00
29461;BME280;16428;47.836;35.106;2023-03-21T03:22:25;101327.56;;;2.46;100.00
29461;BME280;16428;47.836;35.106;2023-03-21T03:24:58;101337.81;;;2.27;100.00
29461;BME280;16428;47.836;35.106;2023-03-21T03:27:46;101336.63;;;2.31;100.00
29461;BME280;16428;47.836;35.106;2023-03-21T03:30:16;101327.81;;;2.30;100.00
29461;BME280;16428;47.836;35.106;2023-03-21T03:32:50;101326.16;;;2.17;100.00
29461;BME280;16428;47.836;35.106;2023-03-21T03:35:22;101332.25;;;2.55;100.00
29461;BME280;16428;47.836;35.106;2023-03-21T03:37:56;101328.25;;;2.37;100.00
29461;BME280;16428;47.836;35.106;2023-03-21T03:40:40;101320.63;;;2.20;100.00
29461;BME280;16428;47.836;35.106;2023-03-21T03:43:17;101328.59;;;2.20;100.00
29461;BME280;16428;47.836;35.106;2023-03-21T03:45:58;101323.00;;;2.11;100.00
29461;BME280;16428;47.836;35.106;2023-03-21T03:48:38;101332.31;;;2.17;100.00
29461;BME280;16428;47.836;35.106;2023-03-21T03:51:19;101333.78;;;2.21;100.00
29461;BME280;16428;47.836;35.106;2023-03-21T03:56:24;101328.28;;;1.99;100.00
29461;BME280;16428;47.836;35.106;2023-03-21T03:58:52;101338.38;;;2.06;100.00
29461;BME280;16428;47.836;35.106;2023-03-21T04:01:20;101325.97;;;1.82;100.00
29461;BME280;16428;47.836;35.106;2023-03-21T04:03:49;101338.47;;;1.92;100.00
29461;BME280;16428;47.836;35.106;2023-03-21T04:06:30;101329.78;;;1.90;100.00
29461;BME280;16428;47.836;35.106;2023-03-21T04:08:58;101334.44;;;1.99;100.00
29461;BME280;16428;47.836;35.106;2023-03-21T04:11:31;101330.81;;;2.00;100.00
29461;BME280;16428;47.836;35.106;2023-03-21T04:13:59;101323.41;;;2.05;100.00
29461;BME280;16428;47.836;35.106;2023-03-21T04:16:27;101329.28;;;2.47;100.00
29461;BME280;16428;47.836;35.106;2023-03-21T04:19:00;101328.16;;;2.62;100.00
29461;BME280;16428;47.836;35.106;2023-03-21T04:21:29;101325.25;;;2.54;100.00
29461;BME280;16428;47.836;35.106;2023-03-21T04:23:59;101327.38;;;2.49;100.00
29461;BME280;16428;47.836;35.106;2023-03-21T04:26:26;101322.13;;;2.60;100.00
29461;BME280;16428;47.836;35.106;2023-03-21T04:28:59;101324.97;;;2.70;100.00
29461;BME280;16428;47.836;35.106;2023-03-21T04:31:27;101326.63;;;2.83;100.00
29461;BME280;16428;47.836;35.106;2023-03-21T04:33:57;101332.34;;;2.77;100.00
29461;BME280;16428;47.836;35.106;2023-03-21T04:36:27;101332.81;;;2.71;100.00
29461;BME280;16428;47.836;35.106;2023-03-21T04:39:05;101333.78;;;2.70;100.00
29461;BME280;16428;47.836;35.106;2023-03-21T04:41:43;101325.94;;;2.93;100.00
29461;BME280;16428;47.836;35.106;2023-03-21T04:44:13;101333.31;;;2.76;100.00
29461;BME280;16428;47.836;35.106;2023-03-21T04:46:42;101331.28;;;2.80;100.00
29461;BME280;16428;47.836;35.106;2023-03-21T04:49:10;101335.09;;;3.12;100.00
29461;BME280;16428;47.836;35.106;2023-03-21T04:51:38;101336.56;;;3.16;100.00
29461;BME280;16428;47.836;35.106;2023-03-21T04:54:06;101329.47;;;3.28;100.00
29461;BME280;16428;47.836;35.106;2023-03-21T04:56:38;101337.84;;;3.35;100.00
29461;BME280;16428;47.836;35.106;2023-03-21T04:59:09;101325.28;;;3.37;100.00
29461;BME280;16428;47.836;35.106;2023-03-21T05:01:36;101335.81;;;3.14;100.00
29461;BME280;16428;47.836;35.106;2023-03-21T05:04:04;101334.38;;;3.45;100.00
29461;BME280;16428;47.836;35.106;2023-03-21T05:06:33;101342.44;;;3.44;100.00
29461;BME280;16428;47.836;35.106;2023-03-21T05:09:01;101329.38;;;3.30;100.00
29461;BME280;16428;47.836;35.106;2023-03-21T05:11:33;101341.09;;;3.38;100.00
29461;BME280;16428;47.836;35.106;2023-03-21T05:14:04;101335.13;;;3.59;100.00
29461;BME280;16428;47.836;35.106;2023-03-21T05:16:33;101336.81;;;3.60;100.00
29461;BME280;16428;47.836;35.106;2023-03-21T05:19:05;101344.06;;;3.58;100.00
29461;BME280;16428;47.836;35.106;2023-03-21T05:21:33;101334.38;;;3.45;100.00
29461;BME280;16428;47.836;35.106;2023-03-21T05:24:11;101345.53;;;3.62;100.00
29461;BME280;16428;47.836;35.106;2023-03-21T05:26:41;101341.78;;;3.64;100.00
29461;BME280;16428;47.836;35.106;2023-03-21T05:29:09;101355.97;;;3.87;100.00
29461;BME280;16428;47.836;35.106;2023-03-21T05:31:37;101348.47;;;3.92;100.00
29461;BME280;16428;47.836;35.106;2023-03-21T05:34:05;101349.31;;;3.81;100.00
29461;BME280;16428;47.836;35.106;2023-03-21T05:36:38;101353.56;;;3.95;100.00
29461;BME280;16428;47.836;35.106;2023-03-21T05:39:06;101360.81;;;4.15;100.00
29461;BME280;16428;47.836;35.106;2023-03-21T05:41:34;101361.31;;;4.32;100.00
29461;BME280;16428;47.836;35.106;2023-03-21T05:44:01;101368.56;;;4.30;100.00
29461;BME280;16428;47.836;35.106;2023-03-21T05:46:30;101368.47;;;4.42;100.00
29461;BME280;16428;47.836;35.106;2023-03-21T05:48:59;101367.09;;;4.70;100.00
29461;BME280;16428;47.836;35.106;2023-03-21T05:51:28;101374.13;;;4.71;100.00
29461;BME280;16428;47.836;35.106;2023-03-21T05:53:55;101369.53;;;4.73;100.00
29461;BME280;16428;47.836;35.106;2023-03-21T05:56:23;101372.19;;;4.73;100.00
29461;BME280;16428;47.836;35.106;2023-03-21T05:58:50;101372.88;;;4.86;100.00
29461;BME280;16428;47.836;35.106;2023-03-21T06:01:22;101365.78;;;5.08;100.00
29461;BME280;16428;47.836;35.106;2023-03-21T06:03:49;101368.69;;;5.16;100.00
29461;BME280;16428;47.836;35.106;2023-03-21T06:06:17;101373.06;;;5.17;100.00
29461;BME280;16428;47.836;35.106;2023-03-21T06:08:44;101364.69;;;5.10;100.00
29461;BME280;16428;47.836;35.106;2023-03-21T06:11:25;101369.63;;;5.26;100.00
29461;BME280;16428;47.836;35.106;2023-03-21T06:13:53;101360.38;;;5.62;100.00
29461;BME280;16428;47.836;35.106;2023-03-21T06:16:25;101368.59;;;5.91;100.00
29461;BME280;16428;47.836;35.106;2023-03-21T06:18:55;101375.38;;;5.84;100.00
29461;BME280;16428;47.836;35.106;2023-03-21T06:21:23;101376.84;;;6.09;100.00
29461;BME280;16428;47.836;35.106;2023-03-21T06:23:52;101370.22;;;6.03;100.00
29461;BME280;16428;47.836;35.106;2023-03-21T06:26:20;101375.78;;;6.51;100.00
29461;BME280;16428;47.836;35.106;2023-03-21T06:28:49;101377.41;;;6.43;100.00
29461;BME280;16428;47.836;35.106;2023-03-21T06:31:17;101379.03;;;6.55;100.00
29461;BME280;16428;47.836;35.106;2023-03-21T06:33:48;101381.81;;;6.93;100.00
29461;BME280;16428;47.836;35.106;2023-03-21T06:36:17;101374.56;;;7.15;100.00
29461;BME280;16428;47.836;35.106;2023-03-21T06:38:44;101375.97;;;7.28;100.00
29461;BME280;16428;47.836;35.106;2023-03-21T06:41:13;101368.63;;;7.21;100.00
29461;BME280;16428;47.836;35.106;2023-03-21T06:43:45;101366.84;;;7.31;100.00
29461;BME280;16428;47.836;35.106;2023-03-21T06:46:12;101365.84;;;7.41;100.00
29461;BME280;16428;47.836;35.106;2023-03-21T06:48:40;101367.13;;;7.47;100.00
29461;BME280;16428;47.836;35.106;2023-03-21T06:51:14;101367.34;;;7.83;100.00
29461;BME280;16428;47.836;35.106;2023-03-21T06:53:42;101369.19;;;7.82;100.00
29461;BME280;16428;47.836;35.106;2023-03-21T06:56:12;101372.38;;;8.05;100.00
29461;BME280;16428;47.836;35.106;2023-03-21T06:58:40;101366.56;;;8.19;100.00
29461;BME280;16428;47.836;35.106;2023-03-21T07:01:08;101361.38;;;8.18;100.00
29461;BME280;16428;47.836;35.106;2023-03-21T07:03:35;101368.88;;;8.04;100.00
29461;BME280;16428;47.836;35.106;2023-03-21T07:06:05;101364.31;;;8.15;100.00
29461;BME280;16428;47.836;35.106;2023-03-21T07:08:33;101370.09;;;8.10;100.00
29461;BME280;16428;47.836;35.106;2023-03-21T07:11:01;101362.06;;;8.10;100.00
29461;BME280;16428;47.836;35.106;2023-03-21T07:13:30;101357.06;;;7.88;100.00
29461;BME280;16428;47.836;35.106;2023-03-21T07:15:58;101362.16;;;7.91;100.00
29461;BME280;16428;47.836;35.106;2023-03-21T07:18:26;101356.38;;;7.86;100.00
29461;BME280;16428;47.836;35.106;2023-03-21T07:20:54;101358.50;;;8.29;100.00
29461;BME280;16428;47.836;35.106;2023-03-21T07:23:23;101362.56;;;8.42;100.00
29461;BME280;16428;47.836;35.106;2023-03-21T07:25:53;101368.94;;;8.69;100.00
29461;BME280;16428;47.836;35.106;2023-03-21T07:28:22;101371.41;;;8.80;100.00
29461;BME280;16428;47.836;35.106;2023-03-21T07:30:52;101367.16;;;8.60;100.00
29461;BME280;16428;47.836;35.106;2023-03-21T07:33:23;101375.09;;;8.79;100.00
29461;BME280;16428;47.836;35.106;2023-03-21T07:35:52;101369.31;;;9.01;100.00
29461;BME280;16428;47.836;35.106;2023-03-21T07:38:26;101367.31;;;9.03;100.00
29461;BME280;16428;47.836;35.106;2023-03-21T07:40:54;101373.00;;;9.18;100.00
29461;BME280;16428;47.836;35.106;2023-03-21T07:43:21;101372.56;;;9.23;100.00
29461;BME280;16428;47.836;35.106;2023-03-21T07:45:50;101371.88;;;9.38;100.00
29461;BME280;16428;47.836;35.106;2023-03-21T07:48:22;101378.78;;;9.41;100.00
29461;BME280;16428;47.836;35.106;2023-03-21T07:50:50;101361.69;;;9.42;100.00
29461;BME280;16428;47.836;35.106;2023-03-21T07:53:18;101372.13;;;9.45;100.00
29461;BME280;16428;47.836;35.106;2023-03-21T07:55:52;101370.16;;;9.20;100.00
29461;BME280;16428;47.836;35.106;2023-03-21T07:58:23;101369.03;;;9.75;100.00
29461;BME280;16428;47.836;35.106;2023-03-21T08:00:52;101380.22;;;9.53;100.00
29461;BME280;16428;47.836;35.106;2023-03-21T08:03:20;101373.69;;;9.73;100.00
29461;BME280;16428;47.836;35.106;2023-03-21T08:05:48;101378.53;;;9.96;100.00
29461;BME280;16428;47.836;35.106;2023-03-21T08:08:17;101378.94;;;10.01;100.00
29461;BME280;16428;47.836;35.106;2023-03-21T08:10:44;101383.88;;;10.39;98.69
29461;BME280;16428;47.836;35.106;2023-03-21T08:13:12;101377.34;;;10.16;98.98
29461;BME280;16428;47.836;35.106;2023-03-21T08:15:40;101370.06;;;10.08;100.00
29461;BME280;16428;47.836;35.106;2023-03-21T08:18:09;101376.63;;;10.06;100.00
29461;BME280;16428;47.836;35.106;2023-03-21T08:20:40;101380.19;;;10.40;99.10
29461;BME280;16428;47.836;35.106;2023-03-21T08:23:07;101377.47;;;10.06;100.00
29461;BME280;16428;47.836;35.106;2023-03-21T08:25:35;101374.97;;;10.31;100.00
29461;BME280;16428;47.836;35.106;2023-03-21T08:28:03;101366.34;;;10.19;99.26
29461;BME280;16428;47.836;35.106;2023-03-21T08:30:31;101365.31;;;10.46;98.29
29461;BME280;16428;47.836;35.106;2023-03-21T08:32:59;101354.94;;;10.25;100.00
29461;BME280;16428;47.836;35.106;2023-03-21T08:35:29;101358.63;;;10.24;99.95
29461;BME280;16428;47.836;35.106;2023-03-21T08:37:57;101360.97;;;10.19;100.00
29461;BME280;16428;47.836;35.106;2023-03-21T08:40:25;101359.00;;;10.29;99.34
29461;BME280;16428;47.836;35.106;2023-03-21T08:42:55;101356.00;;;10.32;100.00
29461;BME280;16428;47.836;35.106;2023-03-21T08:45:23;101363.09;;;10.41;98.42
29461;BME280;16428;47.836;35.106;2023-03-21T08:47:53;101349.03;;;10.47;98.34
29461;BME280;16428;47.836;35.106;2023-03-21T08:50:22;101355.94;;;10.58;97.85
29461;BME280;16428;47.836;35.106;2023-03-21T08:52:51;101350.72;;;10.56;98.52
29461;BME280;16428;47.836;35.106;2023-03-21T08:55:18;101343.63;;;10.89;97.29
29461;BME280;16428;47.836;35.106;2023-03-21T08:57:46;101352.19;;;10.85;96.69
29461;BME280;16428;47.836;35.106;2023-03-21T09:00:17;101353.59;;;11.05;95.78
29461;BME280;16428;47.836;35.106;2023-03-21T09:02:48;101360.66;;;11.06;94.08
29461;BME280;16428;47.836;35.106;2023-03-21T09:05:17;101356.97;;;11.07;93.83
29461;BME280;16428;47.836;35.106;2023-03-21T09:07:47;101351.94;;;11.20;93.96
29461;BME280;16428;47.836;35.106;2023-03-21T09:10:18;101342.56;;;11.41;92.39
29461;BME280;16428;47.836;35.106;2023-03-21T09:12:54;101354.28;;;11.15;93.29
29461;BME280;16428;47.836;35.106;2023-03-21T09:15:24;101362.41;;;11.48;90.97
29461;BME280;16428;47.836;35.106;2023-03-21T09:17:51;101363.59;;;11.53;90.55
29461;BME280;16428;47.836;35.106;2023-03-21T09:20:23;101361.41;;;11.65;89.39
29461;BME280;16428;47.836;35.106;2023-03-21T09:22:59;101359.72;;;11.96;88.24
29461;BME280;16428;47.836;35.106;2023-03-21T09:25:28;101357.88;;;12.60;85.69
29461;BME280;16428;47.836;35.106;2023-03-21T09:28:01;101359.44;;;12.86;82.96
29461;BME280;16428;47.836;35.106;2023-03-21T09:30:34;101361.22;;;13.01;80.91
29461;BME280;16428;47.836;35.106;2023-03-21T09:33:05;101352.50;;;12.60;80.30
29461;BME280;16428;47.836;35.106;2023-03-21T09:35:35;101358.03;;;12.67;79.89
29461;BME280;16428;47.836;35.106;2023-03-21T09:38:04;101349.00;;;12.44;78.33
29461;BME280;16428;47.836;35.106;2023-03-21T09:41:02;101351.59;;;12.76;78.11
29461;BME280;16428;47.836;35.106;2023-03-21T09:51:34;101344.75;;;12.57;79.51
29461;BME280;16428;47.836;35.106;2023-03-21T09:54:16;101342.50;;;12.69;79.34
29461;BME280;16428;47.836;35.106;2023-03-21T09:56:44;101339.69;;;12.62;79.93
29461;BME280;16428;47.836;35.106;2023-03-21T09:59:29;101336.47;;;12.67;80.00
29461;BME280;16428;47.836;35.106;2023-03-21T10:02:00;101332.06;;;12.35;81.27
29461;BME280;16428;47.836;35.106;2023-03-21T10:04:29;101338.69;;;12.55;80.14
29461;BME280;16428;47.836;35.106;2023-03-21T10:07:00;101328.41;;;12.59;81.03
29461;BME280;16428;47.836;35.106;2023-03-21T10:09:29;101327.00;;;12.24;83.31
29461;BME280;16428;47.836;35.106;2023-03-21T10:12:11;101322.41;;;12.41;84.04
29461;BME280;16428;47.836;35.106;2023-03-21T10:14:43;101316.44;;;12.61;81.60
29461;BME280;16428;47.836;35.106;2023-03-21T10:17:40;101311.63;;;12.49;81.31
29461;BME280;16428;47.836;35.106;2023-03-21T10:20:19;101316.34;;;12.39;82.14
29461;BME280;16428;47.836;35.106;2023-03-21T10:22:52;101317.91;;;12.72;81.09
29461;BME280;16428;47.836;35.106;2023-03-21T10:25:27;101319.41;;;12.75;79.80
29461;BME280;16428;47.836;35.106;2023-03-21T10:27:57;101306.16;;;12.65;79.96
29461;BME280;16428;47.836;35.106;2023-03-21T10:33:24;101315.88;;;12.74;79.29
29461;BME280;16428;47.836;35.106;2023-03-21T10:36:00;101315.94;;;12.97;78.57
29461;BME280;16428;47.836;35.106;2023-03-21T10:38:29;101312.72;;;12.93;78.96
29461;BME280;16428;47.836;35.106;2023-03-21T10:40:56;101316.03;;;13.03;77.72
29461;BME280;16428;47.836;35.106;2023-03-21T10:45:55;101305.56;;;12.78;78.85
29461;BME280;16428;47.836;35.106;2023-03-21T10:48:25;101302.47;;;12.89;78.42
29461;BME280;16428;47.836;35.106;2023-03-21T10:50:53;101307.13;;;12.72;78.34
29461;BME280;16428;47.836;35.106;2023-03-21T10:53:34;101297.09;;;12.89;79.33
29461;BME280;16428;47.836;35.106;2023-03-21T10:56:07;101295.19;;;12.97;78.34
29461;BME280;16428;47.836;35.106;2023-03-21T10:58:43;101304.81;;;12.92;78.44
29461;BME280;16428;47.836;35.106;2023-03-21T11:01:22;101301.78;;;12.95;77.39
29461;BME280;16428;47.836;35.106;2023-03-21T11:03:56;101301.22;;;12.68;78.69
29461;BME280;16428;47.836;35.106;2023-03-21T11:06:29;101301.81;;;12.87;77.70
29461;BME280;16428;47.836;35.106;2023-03-21T11:09:06;101300.53;;;12.75;78.57
29461;BME280;16428;47.836;35.106;2023-03-21T11:11:55;101302.22;;;12.76;78.31
29461;BME280;16428;47.836;35.106;2023-03-21T11:14:39;101300.44;;;12.91;75.96
29461;BME280;16428;47.836;35.106;2023-03-21T11:22:16;101297.81;;;12.83;77.10
29461;BME280;16428;47.836;35.106;2023-03-21T11:24:50;101298.16;;;13.02;76.71
29461;BME280;16428;47.836;35.106;2023-03-21T11:27:19;101301.31;;;12.83;78.82
29461;BME280;16428;47.836;35.106;2023-03-21T11:29:49;101298.22;;;13.25;77.20
29461;BME280;16428;47.836;35.106;2023-03-21T11:32:24;101290.63;;;13.29;75.63
29461;BME280;16428;47.836;35.106;2023-03-21T11:35:21;101294.03;;;12.92;77.38
29461;BME280;16428;47.836;35.106;2023-03-21T11:37:56;101291.50;;;13.21;76.26
29461;BME280;16428;47.836;35.106;2023-03-21T11:40:27;101287.53;;;13.55;74.86
29461;BME280;16428;47.836;35.106;2023-03-21T11:45:24;101285.38;;;13.50;73.51
29461;BME280;16428;47.836;35.106;2023-03-21T11:47:54;101283.25;;;13.75;72.30
29461;BME280;16428;47.836;35.106;2023-03-21T11:50:44;101278.91;;;13.36;71.43
29461;BME280;16428;47.836;35.106;2023-03-21T11:53:28;101284.66;;;13.33;72.26
29461;BME280;16428;47.836;35.106;2023-03-21T11:56:21;101285.66;;;13.32;71.65
29461;BME280;16428;47.836;35.106;2023-03-21T12:09:39;101263.56;;;13.37;71.91
29461;BME280;16428;47.836;35.106;2023-03-21T12:12:23;101265.78;;;13.71;70.85
29461;BME280;16428;47.836;35.106;2023-03-21T12:15:29;101256.91;;;13.77;70.12
29461;BME280;16428;47.836;35.106;2023-03-21T12:20:59;101252.16;;;13.64;70.57
29461;BME280;16428;47.836;35.106;2023-03-21T12:23:40;101249.94;;;13.68;70.28
29461;BME280;16428;47.836;35.106;2023-03-21T12:26:25;101254.16;;;13.85;69.82
29461;BME280;16428;47.836;35.106;2023-03-21T12:29:20;101251.34;;;13.93;69.31
29461;BME280;16428;47.836;35.106;2023-03-21T12:40:38;101242.69;;;14.13;66.53
29461;BME280;16428;47.836;35.106;2023-03-21T12:46:18;101231.41;;;14.09;65.85
29461;BME280;16428;47.836;35.106;2023-03-21T12:48:56;101231.88;;;14.42;66.07
29461;BME280;16428;47.836;35.106;2023-03-21T12:51:29;101236.25;;;14.28;65.13
29461;BME280;16428;47.836;35.106;2023-03-21T12:54:06;101228.72;;;14.74;64.01
29461;BME280;16428;47.836;35.106;2023-03-21T12:56:49;101225.59;;;14.56;63.84
29461;BME280;16428;47.836;35.106;2023-03-21T13:01:55;101220.41;;;14.11;65.19
29461;BME280;16428;47.836;35.106;2023-03-21T13:04:54;101218.09;;;14.07;65.10
29461;BME280;16428;47.836;35.106;2023-03-21T13:07:32;101220.97;;;14.06;65.46
29461;BME280;16428;47.836;35.106;2023-03-21T13:10:12;101216.16;;;14.01;65.57
29461;BME280;16428;47.836;35.106;2023-03-21T13:20:48;101223.06;;;14.04;65.27
29461;BME280;16428;47.836;35.106;2023-03-21T13:23:20;101222.75;;;14.43;64.17
29461;BME280;16428;47.836;35.106;2023-03-21T13:25:52;101220.09;;;14.64;62.50
29461;BME280;16428;47.836;35.106;2023-03-21T13:28:29;101221.09;;;14.85;62.42
29461;BME280;16428;47.836;35.106;2023-03-21T13:31:26;101213.31;;;15.45;61.77
29461;BME280;16428;47.836;35.106;2023-03-21T13:33:58;101198.56;;;15.20;61.72
29461;BME280;16428;47.836;35.106;2023-03-21T13:36:29;101203.59;;;15.23;61.68
29461;BME280;16428;47.836;35.106;2023-03-21T13:39:00;101206.56;;;15.91;59.23
29461;BME280;16428;47.836;35.106;2023-03-21T14:04:30;101194.31;;;18.65;47.29
29461;BME280;16428;47.836;35.106;2023-03-21T14:07:20;101182.44;;;19.16;45.87
29461;BME280;16428;47.836;35.106;2023-03-21T14:09:51;101186.31;;;18.77;47.32
29461;BME280;16428;47.836;35.106;2023-03-21T14:12:26;101184.91;;;19.24;45.58
29461;BME280;16428;47.836;35.106;2023-03-21T14:15:17;101174.44;;;18.96;46.24
29461;BME280;16428;47.836;35.106;2023-03-21T14:17:56;101181.59;;;18.59;46.66
29461;BME280;16428;47.836;35.106;2023-03-21T14:20:35;101184.81;;;17.85;48.02
29461;BME280;16428;47.836;35.106;2023-03-21T14:23:13;101183.81;;;17.27;50.32
29461;BME280;16428;47.836;35.106;2023-03-21T14:25:42;101185.69;;;17.13;51.51
29461;BME280;16428;47.836;35.106;2023-03-21T14:30:43;101179.88;;;17.09;51.20
29461;BME280;16428;47.836;35.106;2023-03-21T14:33:27;101175.66;;;17.00;51.31
29461;BME280;16428;47.836;35.106;2023-03-21T14:35:59;101174.63;;;17.28;49.93
29461;BME280;16428;47.836;35.106;2023-03-21T14:38:34;101177.59;;;16.39;52.59
29461;BME280;16428;47.836;35.106;2023-03-21T14:41:04;101178.72;;;16.03;53.98
29461;BME280;16428;47.836;35.106;2023-03-21T14:43:37;101173.13;;;15.70;54.80
29461;BME280;16428;47.836;35.106;2023-03-21T14:46:05;101173.94;;;15.43;55.10
29461;BME280;16428;47.836;35.106;2023-03-21T14:48:33;101175.13;;;15.06;56.27
29461;BME280;16428;47.836;35.106;2023-03-21T14:51:10;101178.59;;;15.21;55.99
29461;BME280;16428;47.836;35.106;2023-03-21T14:53:40;101168.19;;;14.75;57.43
29461;BME280;16428;47.836;35.106;2023-03-21T14:56:18;101175.84;;;14.51;58.89
29461;BME280;16428;47.836;35.106;2023-03-21T14:58:52;101184.84;;;14.58;58.86
29461;BME280;16428;47.836;35.106;2023-03-21T15:01:31;101182.22;;;14.14;60.02
29461;BME280;16428;47.836;35.106;2023-03-21T15:04:04;101181.09;;;14.08;61.04